Time;durP1;ratioP1;P1;durP2;ratioP2;P2;SDS_P1;SDS_P2;PMS_P1;PMS_P2;Temp;Humidity;BMP_temperature;BMP_pressure;BME280_temperature;BME280_humidity;BME280_pressure;Samples;Min_cycle;Max_cycle;Signal;HPM_P1;HPM_P2
2022/12/02 00:01:48;;;;;;;31.60;22.90;;;;;;;;;;5075295;28;20447;-76
2022/12/02 00:04:22;;;;;;;27.37;20.17;;;;;;;;;;5071108;28;20450;-75
2022/12/02 00:06:49;;;;;;;31.33;22.03;;;;;;;;;;5071831;28;20451;-75
2022/12/02 00:09:20;;;;;;;29.97;21.53;;;;;;;;;;5074454;28;20440;-75
2022/12/02 00:11:47;;;;;;;29.67;20.03;;;;;;;;;;5071584;28;20983;-74
2022/12/02 00:14:16;;;;;;;33.33;21.70;;;;;;;;;;5071036;28;20467;-75
2022/12/02 00:16:43;;;;;;;31.90;22.80;;;;;;;;;;5070763;28;20441;-75
2022/12/02 00:19:10;;;;;;;31.17;21.70;;;;;;;;;;5070566;28;20458;-74
2022/12/02 00:21:39;;;;;;;32.47;21.77;;;;;;;;;;5070444;28;20447;-76
2022/12/02 00:24:06;;;;;;;30.90;21.00;;;;;;;;;;5069944;28;20441;-74
2022/12/02 00:26:33;;;;;;;35.97;23.17;;;;;;;;;;5070424;28;20486;-75
2022/12/02 00:29:00;;;;;;;29.03;20.83;;;;;;;;;;5070338;28;20459;-76
2022/12/02 00:31:27;;;;;;;29.83;21.80;;;;;;;;;;5070075;28;20478;-76
2022/12/02 00:33:55;;;;;;;36.80;21.80;;;;;;;;;;5069851;28;20558;-76
2022/12/02 00:36:22;;;;;;;30.70;21.90;;;;;;;;;;5070605;28;21014;-74
2022/12/02 00:38:50;;;;;;;29.93;21.90;;;;;;;;;;5090666;28;20439;-74
2022/12/02 00:41:17;;;;;;;30.07;21.37;;;;;;;;;;5094246;28;20435;-74
2022/12/02 00:46:33;;;;;;;30.57;21.00;;;;;;;;;;5079858;28;20486;-76
2022/12/02 00:49:01;;;;;;;34.83;21.93;;;;;;;;;;5070359;28;20440;-75
2022/12/02 00:51:28;;;;;;;31.47;22.10;;;;;;;;;;5071841;28;20447;-75
2022/12/02 00:53:56;;;;;;;34.63;23.20;;;;;;;;;;5073173;28;20502;-75
2022/12/02 00:56:23;;;;;;;28.10;21.47;;;;;;;;;;5074117;28;20499;-74
2022/12/02 00:58:50;;;;;;;29.60;20.93;;;;;;;;;;5073987;28;20811;-76
2022/12/02 01:01:18;;;;;;;34.40;23.30;;;;;;;;;;5073879;28;20443;-76
2022/12/02 01:03:45;;;;;;;29.47;21.97;;;;;;;;;;5073311;28;20446;-75
2022/12/02 01:06:12;;;;;;;31.10;22.50;;;;;;;;;;5073325;28;20482;-75
2022/12/02 01:08:39;;;;;;;30.57;21.07;;;;;;;;;;5073750;28;20451;-74
2022/12/02 01:11:07;;;;;;;31.27;21.23;;;;;;;;;;5073492;28;20448;-75
2022/12/02 01:13:35;;;;;;;33.23;22.27;;;;;;;;;;5073312;28;20447;-74
2022/12/02 01:16:02;;;;;;;31.67;22.37;;;;;;;;;;5073650;28;20459;-74
2022/12/02 01:18:29;;;;;;;35.13;22.73;;;;;;;;;;5076515;28;20456;-76
2022/12/02 01:20:56;;;;;;;32.67;21.93;;;;;;;;;;5076966;28;20448;-75
2022/12/02 01:23:23;;;;;;;32.17;22.50;;;;;;;;;;5075908;28;20955;-75
2022/12/02 01:25:50;;;;;;;31.23;22.63;;;;;;;;;;5075290;28;20479;-74
2022/12/02 01:28:19;;;;;;;30.10;22.30;;;;;;;;;;5075058;28;20824;-74
2022/12/02 01:30:46;;;;;;;32.30;23.00;;;;;;;;;;5075771;28;20446;-74
2022/12/02 01:33:13;;;;;;;33.47;23.00;;;;;;;;;;5083613;28;20431;-75
2022/12/02 01:35:40;;;;;;;32.70;21.60;;;;;;;;;;5094247;28;20835;-75
2022/12/02 01:38:07;;;;;;;30.97;21.27;;;;;;;;;;5096451;28;20438;-74
2022/12/02 01:40:34;;;;;;;33.33;22.87;;;;;;;;;;5096985;28;20431;-75
2022/12/02 01:43:01;;;;;;;32.87;22.90;;;;;;;;;;5094613;28;20467;-75
2022/12/02 01:45:30;;;;;;;30.80;22.00;;;;;;;;;;5094571;28;20485;-76
2022/12/02 01:47:57;;;;;;;31.47;22.40;;;;;;;;;;5091789;28;20490;-75
2022/12/02 01:50:24;;;;;;;28.80;22.07;;;;;;;;;;5089916;28;20452;-75
2022/12/02 01:52:51;;;;;;;30.00;21.03;;;;;;;;;;5082166;28;20446;-75
2022/12/02 01:55:21;;;;;;;35.67;22.63;;;;;;;;;;5081697;28;20466;-75
2022/12/02 01:57:48;;;;;;;32.17;23.07;;;;;;;;;;5097934;28;20425;-75
2022/12/02 02:00:16;;;;;;;32.33;20.67;;;;;;;;;;5098338;28;20449;-75
2022/12/02 02:02:45;;;;;;;29.63;20.03;;;;;;;;;;5097160;28;20431;-76
2022/12/02 02:05:14;;;;;;;29.13;20.97;;;;;;;;;;5098624;28;20482;-74
2022/12/02 02:07:42;;;;;;;32.60;24.00;;;;;;;;;;5098723;28;20575;-74
2022/12/02 02:10:09;;;;;;;30.13;21.47;;;;;;;;;;5089482;28;20459;-74
2022/12/02 02:12:37;;;;;;;30.60;21.80;;;;;;;;;;5096821;28;20428;-75
2022/12/02 02:15:04;;;;;;;32.70;21.60;;;;;;;;;;5087983;28;20524;-75
2022/12/02 02:17:31;;;;;;;31.57;21.30;;;;;;;;;;5072728;28;20889;-74
2022/12/02 02:20:00;;;;;;;32.00;21.43;;;;;;;;;;5072297;28;20447;-74
2022/12/02 02:22:29;;;;;;;34.30;22.23;;;;;;;;;;5072575;28;20448;-74
2022/12/02 02:24:57;;;;;;;28.27;21.83;;;;;;;;;;5071911;28;20460;-75
2022/12/02 02:27:25;;;;;;;30.30;21.50;;;;;;;;;;5073472;28;20479;-74
2022/12/02 02:29:52;;;;;;;30.83;21.30;;;;;;;;;;5083131;28;20449;-73
2022/12/02 02:32:19;;;;;;;31.10;21.33;;;;;;;;;;5084956;28;20965;-75
2022/12/02 02:34:46;;;;;;;31.97;22.73;;;;;;;;;;5081251;28;20471;-75
2022/12/02 02:37:13;;;;;;;34.50;22.30;;;;;;;;;;5074028;28;20443;-74
2022/12/02 02:39:40;;;;;;;34.10;21.63;;;;;;;;;;5073072;28;20462;-75
2022/12/02 02:42:08;;;;;;;29.57;21.40;;;;;;;;;;5073849;28;20966;-74
2022/12/02 02:44:35;;;;;;;28.20;19.43;;;;;;;;;;5076612;28;20468;-76
2022/12/02 02:47:03;;;;;;;35.13;21.83;;;;;;;;;;5071741;28;20837;-74
2022/12/02 02:49:30;;;;;;;29.70;20.53;;;;;;;;;;5071980;28;20446;-76
2022/12/02 02:51:57;;;;;;;37.13;23.53;;;;;;;;;;5071659;28;20458;-76
2022/12/02 02:54:24;;;;;;;32.40;21.87;;;;;;;;;;5071487;28;20474;-75
2022/12/02 02:56:51;;;;;;;33.70;21.97;;;;;;;;;;5072751;28;20934;-73
2022/12/02 02:59:19;;;;;;;30.97;21.47;;;;;;;;;;5075238;28;20450;-75
2022/12/02 03:01:48;;;;;;;34.83;22.80;;;;;;;;;;5072292;28;20952;-74
2022/12/02 03:04:17;;;;;;;30.73;21.23;;;;;;;;;;5072144;28;20448;-76
2022/12/02 03:06:44;;;;;;;31.20;22.17;;;;;;;;;;5076096;28;20527;-76
2022/12/02 03:09:13;;;;;;;31.87;22.10;;;;;;;;;;5071581;28;20448;-75
2022/12/02 03:11:41;;;;;;;32.60;21.90;;;;;;;;;;5071166;28;20519;-74
2022/12/02 03:14:09;;;;;;;32.63;22.00;;;;;;;;;;5070058;28;20800;-75
2022/12/02 03:16:37;;;;;;;26.93;21.40;;;;;;;;;;5073294;28;21131;-74
2022/12/02 03:19:05;;;;;;;30.23;20.30;;;;;;;;;;5095091;28;20422;-73
2022/12/02 03:21:33;;;;;;;30.77;21.63;;;;;;;;;;5094861;28;20463;-75
2022/12/02 03:24:01;;;;;;;28.73;21.13;;;;;;;;;;5079557;28;20444;-73
2022/12/02 03:26:28;;;;;;;33.07;21.47;;;;;;;;;;5071584;28;20475;-75
2022/12/02 03:28:56;;;;;;;28.90;20.40;;;;;;;;;;5071549;28;20440;-74
2022/12/02 03:31:24;;;;;;;29.60;20.73;;;;;;;;;;5070848;28;20454;-75
2022/12/02 03:33:52;;;;;;;31.33;21.73;;;;;;;;;;5070336;28;20441;-74
2022/12/02 03:36:19;;;;;;;29.63;21.27;;;;;;;;;;5070831;28;20470;-77
2022/12/02 03:38:47;;;;;;;30.87;21.53;;;;;;;;;;5070306;28;20436;-73
2022/12/02 03:41:14;;;;;;;28.83;20.50;;;;;;;;;;5070922;28;20446;-74
2022/12/02 03:43:41;;;;;;;36.53;20.83;;;;;;;;;;5070294;28;20441;-75
2022/12/02 03:46:09;;;;;;;29.83;20.03;;;;;;;;;;5070727;28;20509;-75
2022/12/02 03:48:36;;;;;;;34.27;23.37;;;;;;;;;;5070816;28;20452;-74
2022/12/02 03:51:05;;;;;;;34.17;21.63;;;;;;;;;;5070594;28;20448;-75
2022/12/02 03:53:32;;;;;;;30.10;19.47;;;;;;;;;;5070107;28;20447;-75
2022/12/02 03:56:02;;;;;;;32.00;21.63;;;;;;;;;;5070556;28;20525;-76
2022/12/02 03:58:36;;;;;;;29.40;21.67;;;;;;;;;;5070179;28;20850;-74
2022/12/02 04:01:03;;;;;;;33.00;21.60;;;;;;;;;;5070543;28;20440;-75
2022/12/02 04:03:30;;;;;;;31.00;21.17;;;;;;;;;;5070307;28;20518;-75
2022/12/02 04:05:57;;;;;;;41.40;23.63;;;;;;;;;;5070189;28;20494;-75
2022/12/02 04:08:26;;;;;;;30.50;20.27;;;;;;;;;;5069333;28;20954;-74
2022/12/02 04:10:53;;;;;;;32.73;21.80;;;;;;;;;;5070107;28;20446;-75
2022/12/02 04:13:20;;;;;;;28.47;20.10;;;;;;;;;;5069708;28;20451;-75
2022/12/02 04:15:47;;;;;;;28.97;21.40;;;;;;;;;;5070557;28;20479;-74
2022/12/02 04:18:14;;;;;;;33.50;22.03;;;;;;;;;;5070630;28;20444;-76
2022/12/02 04:20:41;;;;;;;33.60;21.47;;;;;;;;;;5070321;28;20440;-74
2022/12/02 04:23:08;;;;;;;32.40;22.10;;;;;;;;;;5069950;28;20447;-75
2022/12/02 04:25:37;;;;;;;30.83;23.07;;;;;;;;;;5070888;28;20476;-76
2022/12/02 04:28:04;;;;;;;30.53;21.60;;;;;;;;;;5070971;28;20961;-75
2022/12/02 04:30:31;;;;;;;32.27;22.23;;;;;;;;;;5070518;28;20447;-75
2022/12/02 04:32:58;;;;;;;34.03;23.37;;;;;;;;;;5069796;28;20448;-75
2022/12/02 04:35:25;;;;;;;30.17;22.83;;;;;;;;;;5070041;28;20460;-75
2022/12/02 04:37:54;;;;;;;32.30;22.37;;;;;;;;;;5070707;28;20826;-76
2022/12/02 04:40:21;;;;;;;35.93;24.07;;;;;;;;;;5070565;28;20445;-75
2022/12/02 04:42:49;;;;;;;36.13;23.20;;;;;;;;;;5069423;28;20835;-75
2022/12/02 04:45:17;;;;;;;31.40;23.67;;;;;;;;;;5069925;28;20518;-74
2022/12/02 04:47:44;;;;;;;29.97;21.90;;;;;;;;;;5070122;28;21009;-76
2022/12/02 04:50:11;;;;;;;30.77;21.90;;;;;;;;;;5070282;28;20465;-75
2022/12/02 04:52:38;;;;;;;33.70;22.37;;;;;;;;;;5069656;28;20459;-74
2022/12/02 04:55:06;;;;;;;34.67;22.10;;;;;;;;;;5070216;28;20472;-77
2022/12/02 04:57:33;;;;;;;30.50;21.23;;;;;;;;;;5070735;28;20962;-76
2022/12/02 05:00:02;;;;;;;31.97;21.87;;;;;;;;;;5070047;28;20447;-75
2022/12/02 05:02:29;;;;;;;31.43;21.27;;;;;;;;;;5070105;28;20455;-74
2022/12/02 05:04:56;;;;;;;29.70;21.10;;;;;;;;;;5069419;28;20476;-76
2022/12/02 05:07:23;;;;;;;36.50;23.23;;;;;;;;;;5070024;28;20488;-76
2022/12/02 05:09:50;;;;;;;32.73;22.07;;;;;;;;;;5083253;28;20451;-75
2022/12/02 05:12:17;;;;;;;30.80;21.00;;;;;;;;;;5093167;28;20424;-74
2022/12/02 05:14:44;;;;;;;25.83;21.03;;;;;;;;;;5087552;28;20932;-75
2022/12/02 05:17:12;;;;;;;32.97;22.80;;;;;;;;;;5070849;28;20952;-75
2022/12/02 05:19:39;;;;;;;29.97;20.90;;;;;;;;;;5070669;28;20459;-76
2022/12/02 05:22:06;;;;;;;29.87;20.73;;;;;;;;;;5069918;28;20444;-75
2022/12/02 05:24:33;;;;;;;33.50;22.80;;;;;;;;;;5069547;28;20469;-76
2022/12/02 05:27:01;;;;;;;30.73;22.43;;;;;;;;;;5069637;28;20479;-75
2022/12/02 05:29:28;;;;;;;36.33;22.50;;;;;;;;;;5069830;28;20936;-75
2022/12/02 05:31:55;;;;;;;29.27;23.50;;;;;;;;;;5069880;28;20448;-74
2022/12/02 05:34:23;;;;;;;33.90;23.37;;;;;;;;;;5086643;28;20463;-74
2022/12/02 05:36:50;;;;;;;33.47;23.20;;;;;;;;;;5090996;28;20433;-74
2022/12/02 05:39:17;;;;;;;34.07;24.10;;;;;;;;;;5084335;28;20440;-75
2022/12/02 05:41:45;;;;;;;36.13;23.00;;;;;;;;;;5091983;28;20459;-74
2022/12/02 05:44:19;;;;;;;31.50;22.80;;;;;;;;;;5093787;28;20432;-75
2022/12/02 05:46:46;;;;;;;35.97;23.60;;;;;;;;;;5092719;28;20490;-75
2022/12/02 05:49:16;;;;;;;35.60;22.33;;;;;;;;;;5087653;28;20454;-76
2022/12/02 05:51:45;;;;;;;31.33;21.73;;;;;;;;;;5079553;28;20470;-75
2022/12/02 05:54:16;;;;;;;37.07;22.73;;;;;;;;;;5071377;28;20448;-75
2022/12/02 05:56:43;;;;;;;37.80;23.40;;;;;;;;;;5079105;28;20456;-77
2022/12/02 05:59:13;;;;;;;34.50;22.80;;;;;;;;;;5077963;28;20448;-77
2022/12/02 06:01:41;;;;;;;36.30;21.37;;;;;;;;;;5081153;28;20448;-77
2022/12/02 06:04:12;;;;;;;33.67;21.97;;;;;;;;;;5074469;28;20441;-76
2022/12/02 06:06:40;;;;;;;34.17;22.70;;;;;;;;;;5074643;28;20484;-74
2022/12/02 06:09:12;;;;;;;33.17;22.07;;;;;;;;;;5073934;28;20455;-75
2022/12/02 06:11:39;;;;;;;33.93;21.80;;;;;;;;;;5073433;28;20916;-76
2022/12/02 06:14:11;;;;;;;35.50;21.60;;;;;;;;;;5072503;28;20448;-76
2022/12/02 06:16:38;;;;;;;38.87;24.73;;;;;;;;;;5073084;28;20433;-74
2022/12/02 06:19:09;;;;;;;36.23;23.80;;;;;;;;;;5072753;28;20441;-74
2022/12/02 06:21:36;;;;;;;35.87;22.70;;;;;;;;;;5072558;28;20429;-75
2022/12/02 06:24:03;;;;;;;32.57;21.20;;;;;;;;;;5071665;28;20453;-74
2022/12/02 06:26:31;;;;;;;30.50;21.40;;;;;;;;;;5072378;28;20509;-75
2022/12/02 06:28:59;;;;;;;36.37;24.07;;;;;;;;;;5072402;28;20451;-74
2022/12/02 06:31:30;;;;;;;34.30;24.10;;;;;;;;;;5071986;28;20440;-74
2022/12/02 06:33:58;;;;;;;35.50;23.60;;;;;;;;;;5071688;28;20445;-75
2022/12/02 06:36:27;;;;;;;35.40;22.20;;;;;;;;;;5072170;28;20448;-75
2022/12/02 06:38:56;;;;;;;32.90;21.27;;;;;;;;;;5071903;28;21136;-75
2022/12/02 06:41:25;;;;;;;35.17;22.80;;;;;;;;;;5071615;28;20451;-76
2022/12/02 06:46:40;;;;;;;35.17;22.73;;;;;;;;;;5071912;28;20565;-77
2022/12/02 06:49:14;;;;;;;32.33;22.10;;;;;;;;;;5074924;28;20443;-76
2022/12/02 06:51:41;;;;;;;31.17;21.77;;;;;;;;;;5079712;28;20437;-75
2022/12/02 06:54:14;;;;;;;32.77;21.57;;;;;;;;;;5074300;28;20433;-75
2022/12/02 06:56:41;;;;;;;33.17;21.87;;;;;;;;;;5071621;28;20448;-76
2022/12/02 06:59:12;;;;;;;34.50;23.50;;;;;;;;;;5071113;28;20441;-75
2022/12/02 07:01:41;;;;;;;32.93;22.27;;;;;;;;;;5071711;28;20424;-75
2022/12/02 07:04:30;;;;;;;35.50;23.40;;;;;;;;;;5070391;28;20997;-75
2022/12/02 07:07:00;;;;;;;37.40;24.37;;;;;;;;;;5070436;28;20476;-75
2022/12/02 07:09:30;;;;;;;36.57;23.30;;;;;;;;;;5070384;28;20912;-76
2022/12/02 07:11:59;;;;;;;35.33;22.97;;;;;;;;;;5071782;28;20508;-75
2022/12/02 07:14:28;;;;;;;34.93;23.47;;;;;;;;;;5070839;28;20491;-78
2022/12/02 07:16:57;;;;;;;36.53;22.43;;;;;;;;;;5071028;28;20468;-75
2022/12/02 07:19:27;;;;;;;35.90;23.43;;;;;;;;;;5071823;28;20445;-76
2022/12/02 07:21:54;;;;;;;34.40;22.47;;;;;;;;;;5061440;28;20938;-77
2022/12/02 07:24:22;;;;;;;33.53;21.90;;;;;;;;;;5064663;28;20976;-75
2022/12/02 07:26:50;;;;;;;38.53;23.07;;;;;;;;;;5053297;28;20474;-76
2022/12/02 07:29:31;;;;;;;36.33;23.47;;;;;;;;;;5057151;28;20470;-75
2022/12/02 07:31:59;;;;;;;37.33;23.40;;;;;;;;;;5070988;28;20439;-76
2022/12/02 07:34:26;;;;;;;37.73;22.90;;;;;;;;;;5070670;28;20537;-75
2022/12/02 07:36:53;;;;;;;47.90;22.37;;;;;;;;;;5071721;28;20459;-76
2022/12/02 07:39:20;;;;;;;34.73;22.80;;;;;;;;;;5070864;28;20946;-76
2022/12/02 07:41:49;;;;;;;41.03;24.67;;;;;;;;;;5073009;28;20849;-77
2022/12/02 07:44:20;;;;;;;44.17;24.10;;;;;;;;;;5071267;28;20455;-76
2022/12/02 07:46:47;;;;;;;37.67;23.00;;;;;;;;;;5070830;28;20444;-75
2022/12/02 07:49:15;;;;;;;38.03;23.50;;;;;;;;;;5071143;28;20444;-74
2022/12/02 07:51:45;;;;;;;38.20;22.80;;;;;;;;;;5072191;28;20444;-75
2022/12/02 07:54:13;;;;;;;40.20;25.17;;;;;;;;;;5086187;28;20486;-74
2022/12/02 07:56:40;;;;;;;37.73;23.60;;;;;;;;;;5090249;28;20471;-74
2022/12/02 07:59:07;;;;;;;38.17;24.90;;;;;;;;;;5094958;28;20425;-76
2022/12/02 08:01:34;;;;;;;39.83;24.47;;;;;;;;;;5094407;28;20441;-75
2022/12/02 08:04:01;;;;;;;37.07;23.47;;;;;;;;;;5072939;28;20445;-77
2022/12/02 08:06:29;;;;;;;43.00;24.73;;;;;;;;;;5061112;28;20464;-77
2022/12/02 08:08:56;;;;;;;40.57;25.40;;;;;;;;;;5070056;28;20490;-76
2022/12/02 08:11:23;;;;;;;43.80;24.40;;;;;;;;;;5071318;28;20443;-76
2022/12/02 08:13:50;;;;;;;44.80;25.30;;;;;;;;;;5069723;28;20936;-75
2022/12/02 08:16:17;;;;;;;45.73;24.50;;;;;;;;;;5070085;28;20478;-76
2022/12/02 08:18:44;;;;;;;45.67;26.57;;;;;;;;;;5070606;28;20441;-76
2022/12/02 08:21:12;;;;;;;42.77;25.97;;;;;;;;;;5070372;28;20451;-75
2022/12/02 08:23:40;;;;;;;39.27;24.50;;;;;;;;;;5069389;28;20446;-75
2022/12/02 08:26:07;;;;;;;37.23;25.00;;;;;;;;;;5070433;28;20470;-76
2022/12/02 08:28:34;;;;;;;40.60;24.83;;;;;;;;;;5075304;28;20479;-75
2022/12/02 08:31:01;;;;;;;50.23;24.50;;;;;;;;;;5075988;28;20488;-77
2022/12/02 08:33:28;;;;;;;39.90;25.63;;;;;;;;;;5081562;28;20452;-76
2022/12/02 08:35:55;;;;;;;37.13;24.90;;;;;;;;;;5090391;28;20491;-76
2022/12/02 08:38:22;;;;;;;39.60;24.33;;;;;;;;;;5074413;28;20452;-76
2022/12/02 08:40:51;;;;;;;39.00;24.43;;;;;;;;;;5073010;28;20472;-75
2022/12/02 08:43:18;;;;;;;43.13;24.33;;;;;;;;;;5072007;28;20446;-77
2022/12/02 08:45:45;;;;;;;40.87;25.70;;;;;;;;;;5072038;28;20457;-76
2022/12/02 08:48:12;;;;;;;41.43;25.60;;;;;;;;;;5076752;28;20483;-75
2022/12/02 08:50:39;;;;;;;42.03;23.77;;;;;;;;;;5075131;28;20829;-75
2022/12/02 08:53:06;;;;;;;40.60;24.27;;;;;;;;;;5073435;28;20452;-75
2022/12/02 08:55:33;;;;;;;37.97;24.40;;;;;;;;;;5074882;28;20520;-75
2022/12/02 08:58:02;;;;;;;37.70;23.60;;;;;;;;;;5073427;28;20444;-75
2022/12/02 09:00:29;;;;;;;36.10;22.37;;;;;;;;;;5073337;28;20451;-76
2022/12/02 09:02:56;;;;;;;39.63;24.70;;;;;;;;;;5068265;28;20459;-75
2022/12/02 09:05:23;;;;;;;41.33;25.00;;;;;;;;;;5064845;28;20554;-77
2022/12/02 09:07:50;;;;;;;42.73;24.30;;;;;;;;;;5069917;28;20501;-76
2022/12/02 09:10:18;;;;;;;39.97;23.20;;;;;;;;;;5069823;28;20451;-75
2022/12/02 09:12:45;;;;;;;32.30;20.37;;;;;;;;;;5072498;28;20451;-76
2022/12/02 09:15:13;;;;;;;33.43;20.47;;;;;;;;;;5074083;28;20513;-76
2022/12/02 09:17:40;;;;;;;36.57;21.17;;;;;;;;;;5074203;28;20451;-76
2022/12/02 09:20:08;;;;;;;28.83;19.40;;;;;;;;;;5073961;28;20444;-76
2022/12/02 09:22:35;;;;;;;28.40;19.20;;;;;;;;;;5073565;28;20456;-76
2022/12/02 09:25:02;;;;;;;29.43;19.20;;;;;;;;;;5073453;28;20477;-76
2022/12/02 09:27:29;;;;;;;31.13;20.60;;;;;;;;;;5068846;28;20480;-75
2022/12/02 09:29:56;;;;;;;27.80;17.90;;;;;;;;;;5072158;28;20459;-76
2022/12/02 09:32:24;;;;;;;25.53;17.73;;;;;;;;;;5065973;28;20448;-76
2022/12/02 09:34:51;;;;;;;25.97;17.17;;;;;;;;;;5057984;28;20564;-75
2022/12/02 09:37:18;;;;;;;25.10;17.53;;;;;;;;;;5068559;28;20448;-76
2022/12/02 09:39:47;;;;;;;33.80;19.37;;;;;;;;;;5074336;28;20961;-76
2022/12/02 09:42:14;;;;;;;29.37;19.17;;;;;;;;;;5088616;28;20998;-77
2022/12/02 09:44:42;;;;;;;29.57;19.23;;;;;;;;;;5089579;28;20464;-75
2022/12/02 09:47:09;;;;;;;24.03;17.53;;;;;;;;;;5081679;28;20467;-75
2022/12/02 09:49:38;;;;;;;26.43;17.03;;;;;;;;;;5078919;28;20448;-75
2022/12/02 09:52:06;;;;;;;23.20;17.27;;;;;;;;;;5084489;28;20450;-77
2022/12/02 09:54:33;;;;;;;25.03;16.77;;;;;;;;;;5083843;28;20476;-77
2022/12/02 09:57:00;;;;;;;23.57;16.50;;;;;;;;;;5088282;28;20444;-76
2022/12/02 09:59:30;;;;;;;23.80;15.80;;;;;;;;;;5088563;28;20435;-75
2022/12/02 10:01:58;;;;;;;24.37;15.70;;;;;;;;;;5086433;28;20502;-76
2022/12/02 10:04:25;;;;;;;23.93;15.97;;;;;;;;;;5088542;28;20475;-75
2022/12/02 10:06:54;;;;;;;23.33;15.77;;;;;;;;;;5084468;28;20460;-76
2022/12/02 10:09:26;;;;;;;25.00;14.97;;;;;;;;;;5085858;28;20492;-76
2022/12/02 10:11:53;;;;;;;21.70;15.50;;;;;;;;;;5086781;28;20445;-75
2022/12/02 10:14:20;;;;;;;23.13;15.10;;;;;;;;;;5085286;28;20483;-75
2022/12/02 10:16:48;;;;;;;16.90;14.20;;;;;;;;;;5087205;28;21120;-75
2022/12/02 10:19:17;;;;;;;18.13;14.60;;;;;;;;;;5087707;28;20701;-76
2022/12/02 10:21:44;;;;;;;25.77;14.90;;;;;;;;;;5078171;28;20452;-76
2022/12/02 10:24:12;;;;;;;25.17;17.10;;;;;;;;;;5091385;28;20421;-75
2022/12/02 10:26:43;;;;;;;21.50;15.80;;;;;;;;;;5095013;28;20425;-76
2022/12/02 10:29:15;;;;;;;23.90;15.13;;;;;;;;;;5095145;28;20452;-75
2022/12/02 10:31:52;;;;;;;19.83;13.67;;;;;;;;;;5086410;28;20801;-74
2022/12/02 10:34:20;;;;;;;22.80;15.67;;;;;;;;;;5072847;28;20468;-74
2022/12/02 10:36:48;;;;;;;18.60;14.10;;;;;;;;;;5072541;28;20440;-76
2022/12/02 10:39:19;;;;;;;20.50;14.07;;;;;;;;;;5072650;28;20456;-74
2022/12/02 10:41:46;;;;;;;21.97;14.27;;;;;;;;;;5072097;28;20590;-76
2022/12/02 10:44:14;;;;;;;18.97;14.00;;;;;;;;;;5071455;28;20979;-76
2022/12/02 10:46:41;;;;;;;16.00;12.00;;;;;;;;;;5072533;28;20835;-75
2022/12/02 10:49:16;;;;;;;16.17;12.67;;;;;;;;;;5072739;28;20491;-76
2022/12/02 10:51:43;;;;;;;19.30;13.40;;;;;;;;;;5071893;28;20461;-75
2022/12/02 10:54:17;;;;;;;15.03;11.97;;;;;;;;;;5071148;28;20444;-77
2022/12/02 10:56:45;;;;;;;15.67;11.80;;;;;;;;;;5071958;28;20809;-76
2022/12/02 10:59:14;;;;;;;13.53;11.20;;;;;;;;;;5073139;28;20447;-75
2022/12/02 11:01:42;;;;;;;16.97;12.50;;;;;;;;;;5076580;28;20447;-75
2022/12/02 11:04:09;;;;;;;15.77;11.80;;;;;;;;;;5076592;28;20454;-76
2022/12/02 11:06:36;;;;;;;12.97;10.90;;;;;;;;;;5077301;28;20475;-75
2022/12/02 11:09:04;;;;;;;14.27;10.60;;;;;;;;;;5075560;28;20495;-76
2022/12/02 11:11:41;;;;;;;14.57;10.80;;;;;;;;;;5071802;28;20459;-75
2022/12/02 11:14:11;;;;;;;12.10;10.70;;;;;;;;;;5071684;28;20479;-76
2022/12/02 11:16:56;;;;;;;13.70;10.60;;;;;;;;;;5071447;28;20986;-76
2022/12/02 11:19:25;;;;;;;13.33;10.33;;;;;;;;;;5072276;28;20446;-75
2022/12/02 11:21:52;;;;;;;13.50;10.70;;;;;;;;;;5071519;28;20446;-76
2022/12/02 11:24:35;;;;;;;10.63;9.53;;;;;;;;;;5070528;28;20452;-77
2022/12/02 11:27:10;;;;;;;12.47;10.37;;;;;;;;;;5071238;28;20924;-77
2022/12/02 11:29:39;;;;;;;13.30;10.70;;;;;;;;;;5071425;28;20476;-77
2022/12/02 11:32:16;;;;;;;11.93;10.73;;;;;;;;;;5072794;28;20455;-77
2022/12/02 11:34:44;;;;;;;13.97;11.57;;;;;;;;;;5072194;28;20463;-76
2022/12/02 11:37:32;;;;;;;14.70;10.50;;;;;;;;;;5070563;28;20449;-75
2022/12/02 11:40:00;;;;;;;12.50;9.77;;;;;;;;;;5071124;28;20448;-76
2022/12/02 11:42:28;;;;;;;13.23;11.13;;;;;;;;;;5070406;28;20458;-77
2022/12/02 11:45:11;;;;;;;13.57;10.70;;;;;;;;;;5073023;28;20468;-76
2022/12/02 11:47:38;;;;;;;14.37;10.50;;;;;;;;;;5072682;28;20468;-75
2022/12/02 11:50:21;;;;;;;11.73;10.33;;;;;;;;;;5074955;28;20451;-77
2022/12/02 11:52:51;;;;;;;13.37;11.47;;;;;;;;;;5072598;28;20460;-76
2022/12/02 11:55:19;;;;;;;13.70;10.20;;;;;;;;;;5078633;28;20514;-75
2022/12/02 11:57:48;;;;;;;11.53;10.20;;;;;;;;;;5071668;28;20444;-75
2022/12/02 12:00:24;;;;;;;11.63;10.00;;;;;;;;;;5070816;28;20452;-75
2022/12/02 12:03:11;;;;;;;11.60;9.97;;;;;;;;;;5070381;28;20456;-75
2022/12/02 12:05:38;;;;;;;12.90;8.83;;;;;;;;;;5070552;28;20476;-76
2022/12/02 12:08:06;;;;;;;13.07;10.40;;;;;;;;;;5070568;28;20486;-76
2022/12/02 12:10:34;;;;;;;12.47;10.97;;;;;;;;;;5070126;28;20818;-75
2022/12/02 12:13:11;;;;;;;14.57;9.83;;;;;;;;;;5068155;28;20448;-74
2022/12/02 12:15:53;;;;;;;12.33;10.27;;;;;;;;;;5050069;28;20507;-76
2022/12/02 12:18:40;;;;;;;12.30;10.50;;;;;;;;;;5050727;28;20448;-77
2022/12/02 12:21:08;;;;;;;13.90;11.00;;;;;;;;;;5050289;28;20964;-74
2022/12/02 12:23:36;;;;;;;11.13;9.93;;;;;;;;;;5049792;28;20452;-75
2022/12/02 12:26:03;;;;;;;12.40;10.03;;;;;;;;;;5050117;28;20465;-77
2022/12/02 12:28:31;;;;;;;10.00;9.00;;;;;;;;;;5050115;28;20827;-75
2022/12/02 12:30:59;;;;;;;10.50;9.37;;;;;;;;;;5050474;28;20809;-77
2022/12/02 12:33:26;;;;;;;10.27;9.17;;;;;;;;;;5049292;28;20937;-75
2022/12/02 12:35:54;;;;;;;10.27;8.97;;;;;;;;;;5049596;28;21061;-75
2022/12/02 12:38:22;;;;;;;10.13;8.97;;;;;;;;;;5049861;28;20441;-76
2022/12/02 12:40:49;;;;;;;11.20;10.00;;;;;;;;;;5049620;28;20453;-75
2022/12/02 12:43:16;;;;;;;9.20;8.30;;;;;;;;;;5049608;28;20446;-75
2022/12/02 12:45:43;;;;;;;7.67;6.90;;;;;;;;;;5050199;28;20465;-75
2022/12/02 12:48:12;;;;;;;10.10;8.10;;;;;;;;;;5052907;28;20446;-76
2022/12/02 12:50:39;;;;;;;9.70;8.23;;;;;;;;;;5053825;28;20468;-75
2022/12/02 12:53:06;;;;;;;9.63;8.40;;;;;;;;;;5053116;28;20825;-77
2022/12/02 12:55:33;;;;;;;8.43;7.73;;;;;;;;;;5053575;28;20952;-74
2022/12/02 12:58:00;;;;;;;8.30;7.27;;;;;;;;;;5054018;28;20972;-75
2022/12/02 13:00:27;;;;;;;7.60;6.90;;;;;;;;;;5054633;28;20452;-74
2022/12/02 13:02:54;;;;;;;9.37;8.47;;;;;;;;;;5054149;28;20453;-76
2022/12/02 13:05:22;;;;;;;8.53;7.70;;;;;;;;;;5054295;28;21026;-76
2022/12/02 13:07:50;;;;;;;8.40;7.60;;;;;;;;;;5054035;28;20990;-75
2022/12/02 13:10:17;;;;;;;8.80;8.00;;;;;;;;;;5054008;28;20476;-76
2022/12/02 13:12:44;;;;;;;7.30;5.97;;;;;;;;;;5053353;28;20540;-76
2022/12/02 13:15:11;;;;;;;7.00;6.40;;;;;;;;;;5073711;28;20461;-77
2022/12/02 13:17:38;;;;;;;8.07;7.13;;;;;;;;;;5073941;28;20440;-76
2022/12/02 13:20:06;;;;;;;6.87;6.27;;;;;;;;;;5074399;28;20442;-75
2022/12/02 13:22:34;;;;;;;8.43;7.63;;;;;;;;;;5073196;28;20453;-76
2022/12/02 13:25:02;;;;;;;8.33;7.17;;;;;;;;;;5074085;28;20464;-77
2022/12/02 13:27:29;;;;;;;7.80;7.07;;;;;;;;;;5073904;28;20479;-75
2022/12/02 13:29:57;;;;;;;8.90;8.00;;;;;;;;;;5073746;28;20484;-76
2022/12/02 13:32:24;;;;;;;7.37;6.60;;;;;;;;;;5073906;28;20928;-75
2022/12/02 13:34:51;;;;;;;7.83;7.10;;;;;;;;;;5073452;28;20469;-76
2022/12/02 13:37:18;;;;;;;10.80;6.90;;;;;;;;;;5075863;28;20440;-77
2022/12/02 13:39:46;;;;;;;7.63;6.70;;;;;;;;;;5074696;28;20445;-78
2022/12/02 13:42:13;;;;;;;6.57;5.97;;;;;;;;;;5074305;28;20480;-77
2022/12/02 13:44:41;;;;;;;7.67;6.97;;;;;;;;;;5072967;28;20496;-75
2022/12/02 13:47:08;;;;;;;8.53;6.67;;;;;;;;;;5073506;28;20439;-76
2022/12/02 13:49:35;;;;;;;8.37;7.50;;;;;;;;;;5073681;28;20505;-75
2022/12/02 13:52:02;;;;;;;9.77;7.83;;;;;;;;;;5073553;28;20440;-75
2022/12/02 13:54:29;;;;;;;7.30;6.60;;;;;;;;;;5073138;28;20464;-75
2022/12/02 13:56:57;;;;;;;8.20;7.40;;;;;;;;;;5071576;28;20457;-77
2022/12/02 13:59:24;;;;;;;7.67;6.97;;;;;;;;;;5081814;28;20541;-76
2022/12/02 14:01:51;;;;;;;7.83;7.13;;;;;;;;;;5075545;28;20440;-74
2022/12/02 14:04:19;;;;;;;9.10;8.17;;;;;;;;;;5067245;28;20440;-77
2022/12/02 14:06:46;;;;;;;8.93;8.03;;;;;;;;;;5075812;28;20535;-78
2022/12/02 14:09:13;;;;;;;7.97;7.27;;;;;;;;;;5086964;28;20850;-80
2022/12/02 14:11:40;;;;;;;8.20;7.40;;;;;;;;;;5075087;28;20451;-78
2022/12/02 14:14:08;;;;;;;8.97;8.03;;;;;;;;;;5074019;28;20494;-76
2022/12/02 14:16:35;;;;;;;7.50;6.90;;;;;;;;;;5073287;28;20440;-77
2022/12/02 14:19:02;;;;;;;8.17;7.47;;;;;;;;;;5073041;28;20970;-76
2022/12/02 14:21:30;;;;;;;8.80;7.90;;;;;;;;;;5073229;28;20459;-77
2022/12/02 14:23:57;;;;;;;18.63;13.67;;;;;;;;;;5072469;28;20484;-77
2022/12/02 14:26:24;;;;;;;9.27;8.37;;;;;;;;;;5073149;28;21084;-77
2022/12/02 14:28:51;;;;;;;10.50;9.00;;;;;;;;;;5074161;28;20483;-76
2022/12/02 14:31:19;;;;;;;8.70;7.90;;;;;;;;;;5076019;28;20876;-76
2022/12/02 14:33:46;;;;;;;8.60;7.77;;;;;;;;;;5074029;28;20441;-77